sensor_id;sensor_type;location;lat;lon;timestamp;P1;durP1;ratioP1;P2;durP2;ratioP2
24151;SDS011;12311;50.866;4.332;2024-02-21T00:00:17;12.82;;;3.70;;
24151;SDS011;12311;50.866;4.332;2024-02-21T00:02:43;9.98;;;3.65;;
24151;SDS011;12311;50.866;4.332;2024-02-21T00:05:09;19.50;;;4.72;;
24151;SDS011;12311;50.866;4.332;2024-02-21T00:07:34;14.48;;;4.15;;
24151;SDS011;12311;50.866;4.332;2024-02-21T00:10:00;11.27;;;3.38;;
24151;SDS011;12311;50.866;4.332;2024-02-21T00:12:25;13.20;;;4.13;;
24151;SDS011;12311;50.866;4.332;2024-02-21T00:14:51;11.02;;;3.53;;
24151;SDS011;12311;50.866;4.332;2024-02-21T00:17:17;14.60;;;4.47;;
24151;SDS011;12311;50.866;4.332;2024-02-21T00:19:42;10.00;;;3.35;;
24151;SDS011;12311;50.866;4.332;2024-02-21T00:22:08;12.00;;;3.55;;
24151;SDS011;12311;50.866;4.332;2024-02-21T00:24:34;8.85;;;3.08;;
24151;SDS011;12311;50.866;4.332;2024-02-21T00:26:59;13.85;;;3.60;;
24151;SDS011;12311;50.866;4.332;2024-02-21T00:29:25;12.88;;;4.53;;
24151;SDS011;12311;50.866;4.332;2024-02-21T00:31:50;12.35;;;3.45;;
24151;SDS011;12311;50.866;4.332;2024-02-21T00:34:16;9.75;;;3.97;;
24151;SDS011;12311;50.866;4.332;2024-02-21T00:36:42;9.68;;;4.25;;
24151;SDS011;12311;50.866;4.332;2024-02-21T00:39:07;7.90;;;3.65;;
24151;SDS011;12311;50.866;4.332;2024-02-21T00:41:33;11.45;;;3.10;;
24151;SDS011;12311;50.866;4.332;2024-02-21T00:43:59;12.13;;;3.58;;
24151;SDS011;12311;50.866;4.332;2024-02-21T00:46:24;9.38;;;2.80;;
24151;SDS011;12311;50.866;4.332;2024-02-21T00:48:50;13.63;;;3.90;;
24151;SDS011;12311;50.866;4.332;2024-02-21T00:51:16;12.23;;;3.33;;
24151;SDS011;12311;50.866;4.332;2024-02-21T00:53:42;17.45;;;3.78;;
24151;SDS011;12311;50.866;4.332;2024-02-21T00:56:08;11.40;;;3.97;;
24151;SDS011;12311;50.866;4.332;2024-02-21T00:58:33;8.63;;;3.70;;
24151;SDS011;12311;50.866;4.332;2024-02-21T01:01:02;17.50;;;4.00;;
24151;SDS011;12311;50.866;4.332;2024-02-21T01:03:28;12.43;;;3.25;;
24151;SDS011;12311;50.866;4.332;2024-02-21T01:05:54;10.43;;;3.47;;
24151;SDS011;12311;50.866;4.332;2024-02-21T01:08:19;9.20;;;3.38;;
24151;SDS011;12311;50.866;4.332;2024-02-21T01:10:45;14.98;;;3.63;;
24151;SDS011;12311;50.866;4.332;2024-02-21T01:13:11;14.60;;;3.78;;
24151;SDS011;12311;50.866;4.332;2024-02-21T01:15:36;8.68;;;3.80;;
24151;SDS011;12311;50.866;4.332;2024-02-21T01:18:02;11.50;;;3.50;;
24151;SDS011;12311;50.866;4.332;2024-02-21T01:20:28;9.48;;;3.03;;
24151;SDS011;12311;50.866;4.332;2024-02-21T01:22:54;13.75;;;4.30;;
24151;SDS011;12311;50.866;4.332;2024-02-21T01:25:19;11.98;;;3.25;;
24151;SDS011;12311;50.866;4.332;2024-02-21T01:27:45;6.88;;;2.95;;
24151;SDS011;12311;50.866;4.332;2024-02-21T01:30:11;11.55;;;3.75;;
24151;SDS011;12311;50.866;4.332;2024-02-21T01:32:36;10.82;;;3.00;;
24151;SDS011;12311;50.866;4.332;2024-02-21T01:35:02;11.77;;;2.92;;
24151;SDS011;12311;50.866;4.332;2024-02-21T01:37:28;12.18;;;3.65;;
24151;SDS011;12311;50.866;4.332;2024-02-21T01:39:54;9.07;;;3.05;;
24151;SDS011;12311;50.866;4.332;2024-02-21T01:42:19;11.20;;;3.97;;
24151;SDS011;12311;50.866;4.332;2024-02-21T01:44:45;17.67;;;3.92;;
24151;SDS011;12311;50.866;4.332;2024-02-21T01:47:11;13.15;;;3.70;;
24151;SDS011;12311;50.866;4.332;2024-02-21T01:49:40;13.95;;;3.70;;
24151;SDS011;12311;50.866;4.332;2024-02-21T01:52:06;13.65;;;3.95;;
24151;SDS011;12311;50.866;4.332;2024-02-21T01:54:33;14.45;;;3.60;;
24151;SDS011;12311;50.866;4.332;2024-02-21T01:56:59;12.50;;;3.42;;
24151;SDS011;12311;50.866;4.332;2024-02-21T01:59:25;12.05;;;3.22;;
24151;SDS011;12311;50.866;4.332;2024-02-21T02:01:51;14.50;;;4.35;;
24151;SDS011;12311;50.866;4.332;2024-02-21T02:04:18;11.63;;;3.70;;
24151;SDS011;12311;50.866;4.332;2024-02-21T02:06:45;12.38;;;4.00;;
24151;SDS011;12311;50.866;4.332;2024-02-21T02:09:11;13.05;;;4.47;;
24151;SDS011;12311;50.866;4.332;2024-02-21T02:11:37;14.15;;;4.28;;
24151;SDS011;12311;50.866;4.332;2024-02-21T02:14:02;12.90;;;4.25;;
24151;SDS011;12311;50.866;4.332;2024-02-21T02:16:28;11.48;;;4.75;;
24151;SDS011;12311;50.866;4.332;2024-02-21T02:18:54;15.57;;;4.20;;
24151;SDS011;12311;50.866;4.332;2024-02-21T02:21:39;12.70;;;3.95;;
24151;SDS011;12311;50.866;4.332;2024-02-21T02:24:09;12.85;;;4.47;;
24151;SDS011;12311;50.866;4.332;2024-02-21T02:26:35;13.50;;;4.22;;
24151;SDS011;12311;50.866;4.332;2024-02-21T02:29:03;12.90;;;4.32;;
24151;SDS011;12311;50.866;4.332;2024-02-21T02:31:29;12.98;;;4.15;;
24151;SDS011;12311;50.866;4.332;2024-02-21T02:33:55;16.00;;;4.30;;
24151;SDS011;12311;50.866;4.332;2024-02-21T02:36:20;17.42;;;4.68;;
24151;SDS011;12311;50.866;4.332;2024-02-21T02:38:46;16.77;;;4.70;;
24151;SDS011;12311;50.866;4.332;2024-02-21T02:41:12;10.40;;;4.28;;
24151;SDS011;12311;50.866;4.332;2024-02-21T02:43:37;10.60;;;4.00;;
24151;SDS011;12311;50.866;4.332;2024-02-21T02:46:03;13.27;;;3.75;;
24151;SDS011;12311;50.866;4.332;2024-02-21T02:48:29;19.90;;;3.85;;
24151;SDS011;12311;50.866;4.332;2024-02-21T02:50:55;11.02;;;4.35;;
24151;SDS011;12311;50.866;4.332;2024-02-21T02:53:20;11.90;;;4.65;;
24151;SDS011;12311;50.866;4.332;2024-02-21T02:55:46;16.85;;;4.13;;
24151;SDS011;12311;50.866;4.332;2024-02-21T02:58:11;12.02;;;4.63;;
24151;SDS011;12311;50.866;4.332;2024-02-21T03:00:37;15.45;;;4.55;;
24151;SDS011;12311;50.866;4.332;2024-02-21T03:03:04;10.63;;;3.35;;
24151;SDS011;12311;50.866;4.332;2024-02-21T03:05:30;10.38;;;3.88;;
24151;SDS011;12311;50.866;4.332;2024-02-21T03:07:55;13.27;;;4.38;;
24151;SDS011;12311;50.866;4.332;2024-02-21T03:10:21;16.35;;;4.15;;
24151;SDS011;12311;50.866;4.332;2024-02-21T03:12:47;16.40;;;5.10;;
24151;SDS011;12311;50.866;4.332;2024-02-21T03:15:13;11.63;;;3.45;;
24151;SDS011;12311;50.866;4.332;2024-02-21T03:17:39;9.15;;;3.58;;
24151;SDS011;12311;50.866;4.332;2024-02-21T03:20:05;8.63;;;3.13;;
24151;SDS011;12311;50.866;4.332;2024-02-21T03:22:34;13.10;;;4.28;;
24151;SDS011;12311;50.866;4.332;2024-02-21T03:25:00;13.88;;;5.38;;
24151;SDS011;12311;50.866;4.332;2024-02-21T03:27:26;13.68;;;4.70;;
24151;SDS011;12311;50.866;4.332;2024-02-21T03:29:52;13.05;;;5.00;;
24151;SDS011;12311;50.866;4.332;2024-02-21T03:32:18;9.98;;;3.95;;
24151;SDS011;12311;50.866;4.332;2024-02-21T03:34:43;10.60;;;3.63;;
24151;SDS011;12311;50.866;4.332;2024-02-21T03:37:09;9.75;;;4.18;;
24151;SDS011;12311;50.866;4.332;2024-02-21T03:39:35;14.07;;;4.60;;
24151;SDS011;12311;50.866;4.332;2024-02-21T03:42:01;12.80;;;5.20;;
24151;SDS011;12311;50.866;4.332;2024-02-21T03:44:30;13.75;;;4.68;;
24151;SDS011;12311;50.866;4.332;2024-02-21T03:46:56;13.00;;;4.35;;
24151;SDS011;12311;50.866;4.332;2024-02-21T03:49:22;9.63;;;4.00;;
24151;SDS011;12311;50.866;4.332;2024-02-21T03:51:47;11.77;;;5.28;;
24151;SDS011;12311;50.866;4.332;2024-02-21T03:54:13;11.77;;;3.90;;
24151;SDS011;12311;50.866;4.332;2024-02-21T03:56:39;14.02;;;5.68;;
24151;SDS011;12311;50.866;4.332;2024-02-21T03:59:08;12.45;;;5.13;;
24151;SDS011;12311;50.866;4.332;2024-02-21T04:01:34;13.93;;;4.30;;
24151;SDS011;12311;50.866;4.332;2024-02-21T04:04:00;14.70;;;4.63;;
24151;SDS011;12311;50.866;4.332;2024-02-21T04:06:26;10.40;;;4.63;;
24151;SDS011;12311;50.866;4.332;2024-02-21T04:08:52;12.73;;;4.63;;
24151;SDS011;12311;50.866;4.332;2024-02-21T04:11:18;15.93;;;4.38;;
24151;SDS011;12311;50.866;4.332;2024-02-21T04:13:44;13.18;;;4.90;;
24151;SDS011;12311;50.866;4.332;2024-02-21T04:16:10;11.90;;;4.57;;
24151;SDS011;12311;50.866;4.332;2024-02-21T04:18:36;16.63;;;5.18;;
24151;SDS011;12311;50.866;4.332;2024-02-21T04:21:01;15.95;;;4.85;;
24151;SDS011;12311;50.866;4.332;2024-02-21T04:23:27;15.23;;;4.85;;
24151;SDS011;12311;50.866;4.332;2024-02-21T04:25:53;14.77;;;4.22;;
24151;SDS011;12311;50.866;4.332;2024-02-21T04:28:18;12.05;;;3.88;;
24151;SDS011;12311;50.866;4.332;2024-02-21T04:30:44;11.50;;;4.55;;
24151;SDS011;12311;50.866;4.332;2024-02-21T04:33:09;12.00;;;4.35;;
24151;SDS011;12311;50.866;4.332;2024-02-21T04:35:36;12.25;;;3.95;;
24151;SDS011;12311;50.866;4.332;2024-02-21T04:38:01;13.10;;;4.68;;
24151;SDS011;12311;50.866;4.332;2024-02-21T04:40:27;11.98;;;4.43;;
24151;SDS011;12311;50.866;4.332;2024-02-21T04:42:53;11.32;;;3.97;;
24151;SDS011;12311;50.866;4.332;2024-02-21T04:45:19;12.23;;;4.15;;
24151;SDS011;12311;50.866;4.332;2024-02-21T04:47:45;10.13;;;3.67;;
24151;SDS011;12311;50.866;4.332;2024-02-21T04:50:10;11.23;;;3.97;;
24151;SDS011;12311;50.866;4.332;2024-02-21T04:52:36;11.25;;;3.92;;
24151;SDS011;12311;50.866;4.332;2024-02-21T04:55:02;10.15;;;3.78;;
24151;SDS011;12311;50.866;4.332;2024-02-21T04:57:27;17.48;;;3.65;;
24151;SDS011;12311;50.866;4.332;2024-02-21T04:59:53;12.82;;;4.22;;
24151;SDS011;12311;50.866;4.332;2024-02-21T05:02:19;17.08;;;3.75;;
24151;SDS011;12311;50.866;4.332;2024-02-21T05:04:47;8.95;;;4.25;;
24151;SDS011;12311;50.866;4.332;2024-02-21T05:07:13;10.35;;;3.83;;
24151;SDS011;12311;50.866;4.332;2024-02-21T05:09:38;13.63;;;4.25;;
24151;SDS011;12311;50.866;4.332;2024-02-21T05:12:04;10.80;;;4.10;;
24151;SDS011;12311;50.866;4.332;2024-02-21T05:14:30;16.83;;;4.07;;
24151;SDS011;12311;50.866;4.332;2024-02-21T05:16:56;8.27;;;3.90;;
24151;SDS011;12311;50.866;4.332;2024-02-21T05:19:21;10.45;;;4.30;;
24151;SDS011;12311;50.866;4.332;2024-02-21T05:21:47;14.60;;;3.40;;
24151;SDS011;12311;50.866;4.332;2024-02-21T05:24:12;10.52;;;3.80;;
24151;SDS011;12311;50.866;4.332;2024-02-21T05:26:38;11.80;;;4.30;;
24151;SDS011;12311;50.866;4.332;2024-02-21T05:29:04;9.55;;;3.90;;
24151;SDS011;12311;50.866;4.332;2024-02-21T05:34:20;8.43;;;3.28;;
24151;SDS011;12311;50.866;4.332;2024-02-21T05:36:46;14.18;;;4.45;;
24151;SDS011;12311;50.866;4.332;2024-02-21T05:39:14;9.35;;;3.95;;
24151;SDS011;12311;50.866;4.332;2024-02-21T05:41:41;13.52;;;4.22;;
24151;SDS011;12311;50.866;4.332;2024-02-21T05:44:07;12.82;;;3.33;;
24151;SDS011;12311;50.866;4.332;2024-02-21T05:46:33;6.93;;;3.60;;
24151;SDS011;12311;50.866;4.332;2024-02-21T05:48:59;11.05;;;3.72;;
24151;SDS011;12311;50.866;4.332;2024-02-21T05:51:24;10.60;;;3.80;;
24151;SDS011;12311;50.866;4.332;2024-02-21T05:53:50;11.90;;;3.63;;
24151;SDS011;12311;50.866;4.332;2024-02-21T05:56:15;9.80;;;4.22;;
24151;SDS011;12311;50.866;4.332;2024-02-21T05:58:43;11.98;;;3.80;;
24151;SDS011;12311;50.866;4.332;2024-02-21T06:01:09;11.85;;;3.88;;
24151;SDS011;12311;50.866;4.332;2024-02-21T06:03:36;14.57;;;3.80;;
24151;SDS011;12311;50.866;4.332;2024-02-21T06:06:02;14.20;;;4.22;;
24151;SDS011;12311;50.866;4.332;2024-02-21T06:08:29;10.00;;;3.67;;
24151;SDS011;12311;50.866;4.332;2024-02-21T06:10:55;9.35;;;3.47;;
24151;SDS011;12311;50.866;4.332;2024-02-21T06:13:21;8.15;;;3.30;;
24151;SDS011;12311;50.866;4.332;2024-02-21T06:15:48;7.63;;;2.90;;
24151;SDS011;12311;50.866;4.332;2024-02-21T06:18:15;10.52;;;3.38;;
24151;SDS011;12311;50.866;4.332;2024-02-21T06:20:44;10.25;;;3.30;;
24151;SDS011;12311;50.866;4.332;2024-02-21T06:23:11;6.88;;;2.85;;
24151;SDS011;12311;50.866;4.332;2024-02-21T06:25:37;7.15;;;2.85;;
24151;SDS011;12311;50.866;4.332;2024-02-21T06:28:04;9.52;;;3.00;;
24151;SDS011;12311;50.866;4.332;2024-02-21T06:30:30;5.35;;;2.55;;
24151;SDS011;12311;50.866;4.332;2024-02-21T06:32:55;7.18;;;2.97;;
24151;SDS011;12311;50.866;4.332;2024-02-21T06:35:21;7.75;;;3.75;;
24151;SDS011;12311;50.866;4.332;2024-02-21T06:37:50;10.23;;;3.78;;
24151;SDS011;12311;50.866;4.332;2024-02-21T06:40:17;10.27;;;3.58;;
24151;SDS011;12311;50.866;4.332;2024-02-21T06:42:43;8.25;;;3.38;;
24151;SDS011;12311;50.866;4.332;2024-02-21T06:45:09;9.30;;;3.83;;
24151;SDS011;12311;50.866;4.332;2024-02-21T06:47:34;9.25;;;3.55;;
24151;SDS011;12311;50.866;4.332;2024-02-21T06:50:00;11.35;;;3.75;;
24151;SDS011;12311;50.866;4.332;2024-02-21T06:52:25;12.90;;;3.90;;
24151;SDS011;12311;50.866;4.332;2024-02-21T06:54:51;10.23;;;3.97;;
24151;SDS011;12311;50.866;4.332;2024-02-21T06:57:17;8.95;;;3.70;;
24151;SDS011;12311;50.866;4.332;2024-02-21T06:59:43;11.55;;;3.53;;
24151;SDS011;12311;50.866;4.332;2024-02-21T07:02:08;11.52;;;4.38;;
24151;SDS011;12311;50.866;4.332;2024-02-21T07:04:34;12.48;;;3.70;;
24151;SDS011;12311;50.866;4.332;2024-02-21T07:07:00;9.82;;;3.90;;
24151;SDS011;12311;50.866;4.332;2024-02-21T07:09:26;7.60;;;3.63;;
24151;SDS011;12311;50.866;4.332;2024-02-21T07:11:53;11.90;;;3.38;;
24151;SDS011;12311;50.866;4.332;2024-02-21T07:14:19;13.45;;;4.25;;
24151;SDS011;12311;50.866;4.332;2024-02-21T07:16:45;10.80;;;3.85;;
24151;SDS011;12311;50.866;4.332;2024-02-21T07:19:10;14.73;;;5.32;;
24151;SDS011;12311;50.866;4.332;2024-02-21T07:21:36;11.18;;;4.85;;
24151;SDS011;12311;50.866;4.332;2024-02-21T07:24:06;11.07;;;4.03;;
24151;SDS011;12311;50.866;4.332;2024-02-21T07:26:32;10.07;;;3.60;;
24151;SDS011;12311;50.866;4.332;2024-02-21T07:28:58;11.13;;;3.92;;
24151;SDS011;12311;50.866;4.332;2024-02-21T07:31:24;10.88;;;3.90;;
24151;SDS011;12311;50.866;4.332;2024-02-21T07:33:49;14.10;;;3.83;;
24151;SDS011;12311;50.866;4.332;2024-02-21T07:36:15;10.80;;;4.10;;
24151;SDS011;12311;50.866;4.332;2024-02-21T07:38:49;6.70;;;3.30;;
24151;SDS011;12311;50.866;4.332;2024-02-21T07:41:15;8.95;;;3.92;;
24151;SDS011;12311;50.866;4.332;2024-02-21T07:43:41;14.40;;;4.88;;
24151;SDS011;12311;50.866;4.332;2024-02-21T07:46:06;8.98;;;3.15;;
24151;SDS011;12311;50.866;4.332;2024-02-21T07:48:32;9.27;;;3.88;;
24151;SDS011;12311;50.866;4.332;2024-02-21T07:50:58;10.40;;;3.50;;
24151;SDS011;12311;50.866;4.332;2024-02-21T07:53:23;9.85;;;3.50;;
24151;SDS011;12311;50.866;4.332;2024-02-21T07:55:49;9.50;;;3.15;;
24151;SDS011;12311;50.866;4.332;2024-02-21T07:58:14;10.48;;;3.53;;
24151;SDS011;12311;50.866;4.332;2024-02-21T08:00:40;9.25;;;3.53;;
24151;SDS011;12311;50.866;4.332;2024-02-21T08:03:06;8.35;;;3.40;;
24151;SDS011;12311;50.866;4.332;2024-02-21T08:05:34;11.57;;;3.08;;
24151;SDS011;12311;50.866;4.332;2024-02-21T08:08:00;11.25;;;3.45;;
24151;SDS011;12311;50.866;4.332;2024-02-21T08:10:25;7.70;;;3.47;;
24151;SDS011;12311;50.866;4.332;2024-02-21T08:12:51;9.75;;;3.35;;
24151;SDS011;12311;50.866;4.332;2024-02-21T08:15:17;18.95;;;4.72;;
24151;SDS011;12311;50.866;4.332;2024-02-21T08:17:42;10.02;;;3.58;;
24151;SDS011;12311;50.866;4.332;2024-02-21T08:20:08;7.55;;;3.40;;
24151;SDS011;12311;50.866;4.332;2024-02-21T08:22:36;10.27;;;3.42;;
24151;SDS011;12311;50.866;4.332;2024-02-21T08:25:03;9.25;;;2.88;;
24151;SDS011;12311;50.866;4.332;2024-02-21T08:27:30;7.00;;;2.78;;
24151;SDS011;12311;50.866;4.332;2024-02-21T08:29:56;9.50;;;3.28;;
24151;SDS011;12311;50.866;4.332;2024-02-21T08:32:22;7.05;;;3.38;;
24151;SDS011;12311;50.866;4.332;2024-02-21T08:34:47;7.03;;;2.92;;
24151;SDS011;12311;50.866;4.332;2024-02-21T08:37:13;8.35;;;3.58;;
24151;SDS011;12311;50.866;4.332;2024-02-21T08:39:39;7.80;;;3.00;;
24151;SDS011;12311;50.866;4.332;2024-02-21T08:42:05;6.35;;;2.25;;
24151;SDS011;12311;50.866;4.332;2024-02-21T08:44:30;5.32;;;2.30;;
24151;SDS011;12311;50.866;4.332;2024-02-21T08:46:56;6.32;;;2.35;;
24151;SDS011;12311;50.866;4.332;2024-02-21T08:49:22;7.97;;;2.83;;
24151;SDS011;12311;50.866;4.332;2024-02-21T08:51:48;7.13;;;2.75;;
24151;SDS011;12311;50.866;4.332;2024-02-21T08:54:13;6.47;;;2.38;;
24151;SDS011;12311;50.866;4.332;2024-02-21T08:56:39;5.75;;;2.53;;
24151;SDS011;12311;50.866;4.332;2024-02-21T08:59:05;5.53;;;2.22;;
24151;SDS011;12311;50.866;4.332;2024-02-21T09:01:30;5.28;;;2.50;;
24151;SDS011;12311;50.866;4.332;2024-02-21T09:03:56;6.32;;;2.38;;
24151;SDS011;12311;50.866;4.332;2024-02-21T09:06:23;7.25;;;2.30;;
24151;SDS011;12311;50.866;4.332;2024-02-21T09:08:49;5.90;;;2.55;;
24151;SDS011;12311;50.866;4.332;2024-02-21T09:11:14;5.82;;;1.95;;
24151;SDS011;12311;50.866;4.332;2024-02-21T09:13:41;5.55;;;2.47;;
24151;SDS011;12311;50.866;4.332;2024-02-21T09:16:06;6.50;;;2.15;;
24151;SDS011;12311;50.866;4.332;2024-02-21T09:18:33;6.07;;;2.17;;
24151;SDS011;12311;50.866;4.332;2024-02-21T09:20:58;6.97;;;2.40;;
24151;SDS011;12311;50.866;4.332;2024-02-21T09:23:25;8.35;;;2.30;;
24151;SDS011;12311;50.866;4.332;2024-02-21T09:25:50;6.60;;;2.63;;
24151;SDS011;12311;50.866;4.332;2024-02-21T09:28:16;4.20;;;1.95;;
24151;SDS011;12311;50.866;4.332;2024-02-21T09:30:42;4.80;;;2.20;;
24151;SDS011;12311;50.866;4.332;2024-02-21T09:33:08;7.32;;;3.08;;
24151;SDS011;12311;50.866;4.332;2024-02-21T09:35:33;8.38;;;2.50;;
24151;SDS011;12311;50.866;4.332;2024-02-21T09:37:59;5.10;;;2.47;;
24151;SDS011;12311;50.866;4.332;2024-02-21T09:40:25;8.65;;;2.92;;
24151;SDS011;12311;50.866;4.332;2024-02-21T09:42:54;6.15;;;2.60;;
24151;SDS011;12311;50.866;4.332;2024-02-21T09:45:29;8.55;;;2.75;;
24151;SDS011;12311;50.866;4.332;2024-02-21T09:50:46;5.95;;;2.58;;
24151;SDS011;12311;50.866;4.332;2024-02-21T09:53:14;5.00;;;2.65;;
24151;SDS011;12311;50.866;4.332;2024-02-21T09:55:40;4.80;;;2.40;;
24151;SDS011;12311;50.866;4.332;2024-02-21T09:58:07;5.28;;;2.35;;
24151;SDS011;12311;50.866;4.332;2024-02-21T10:00:35;5.13;;;2.58;;
24151;SDS011;12311;50.866;4.332;2024-02-21T10:03:01;6.85;;;2.30;;
24151;SDS011;12311;50.866;4.332;2024-02-21T10:05:32;7.22;;;2.17;;
24151;SDS011;12311;50.866;4.332;2024-02-21T10:08:01;5.45;;;2.22;;
24151;SDS011;12311;50.866;4.332;2024-02-21T10:10:27;8.00;;;2.35;;
24151;SDS011;12311;50.866;4.332;2024-02-21T10:12:54;8.93;;;2.25;;
24151;SDS011;12311;50.866;4.332;2024-02-21T10:15:21;6.20;;;2.00;;
24151;SDS011;12311;50.866;4.332;2024-02-21T10:17:48;6.22;;;2.22;;
24151;SDS011;12311;50.866;4.332;2024-02-21T10:20:13;7.15;;;2.42;;
24151;SDS011;12311;50.866;4.332;2024-02-21T10:22:40;4.72;;;2.03;;
24151;SDS011;12311;50.866;4.332;2024-02-21T10:25:09;6.70;;;2.38;;
24151;SDS011;12311;50.866;4.332;2024-02-21T10:27:36;4.75;;;2.28;;
24151;SDS011;12311;50.866;4.332;2024-02-21T10:30:02;4.32;;;2.17;;
24151;SDS011;12311;50.866;4.332;2024-02-21T10:32:29;3.63;;;2.03;;
24151;SDS011;12311;50.866;4.332;2024-02-21T10:35:02;5.00;;;2.58;;
24151;SDS011;12311;50.866;4.332;2024-02-21T10:37:29;5.40;;;2.63;;
24151;SDS011;12311;50.866;4.332;2024-02-21T10:39:55;4.88;;;2.22;;
24151;SDS011;12311;50.866;4.332;2024-02-21T10:42:22;9.27;;;2.40;;
24151;SDS011;12311;50.866;4.332;2024-02-21T10:44:50;6.15;;;2.40;;
24151;SDS011;12311;50.866;4.332;2024-02-21T10:47:17;4.38;;;2.10;;
24151;SDS011;12311;50.866;4.332;2024-02-21T10:49:46;6.13;;;2.45;;
24151;SDS011;12311;50.866;4.332;2024-02-21T10:52:32;9.18;;;2.83;;
24151;SDS011;12311;50.866;4.332;2024-02-21T10:55:14;6.30;;;2.40;;
24151;SDS011;12311;50.866;4.332;2024-02-21T10:57:46;8.27;;;3.05;;
24151;SDS011;12311;50.866;4.332;2024-02-21T11:00:14;10.18;;;2.75;;
24151;SDS011;12311;50.866;4.332;2024-02-21T11:02:42;5.63;;;2.00;;
24151;SDS011;12311;50.866;4.332;2024-02-21T11:05:08;7.60;;;2.00;;
24151;SDS011;12311;50.866;4.332;2024-02-21T11:07:35;7.28;;;2.55;;
24151;SDS011;12311;50.866;4.332;2024-02-21T11:10:02;7.57;;;2.10;;
24151;SDS011;12311;50.866;4.332;2024-02-21T11:12:32;6.25;;;2.65;;
24151;SDS011;12311;50.866;4.332;2024-02-21T11:15:07;4.30;;;2.88;;
24151;SDS011;12311;50.866;4.332;2024-02-21T11:17:33;5.03;;;2.30;;
24151;SDS011;12311;50.866;4.332;2024-02-21T11:19:59;3.63;;;1.85;;
24151;SDS011;12311;50.866;4.332;2024-02-21T11:22:41;7.18;;;2.40;;
24151;SDS011;12311;50.866;4.332;2024-02-21T11:25:08;5.88;;;2.22;;
24151;SDS011;12311;50.866;4.332;2024-02-21T11:27:36;6.28;;;2.08;;
24151;SDS011;12311;50.866;4.332;2024-02-21T11:30:05;7.32;;;2.15;;
24151;SDS011;12311;50.866;4.332;2024-02-21T11:32:31;5.88;;;2.42;;
24151;SDS011;12311;50.866;4.332;2024-02-21T11:35:00;7.25;;;2.58;;
24151;SDS011;12311;50.866;4.332;2024-02-21T11:37:29;8.35;;;2.65;;
24151;SDS011;12311;50.866;4.332;2024-02-21T11:39:57;4.95;;;2.10;;
24151;SDS011;12311;50.866;4.332;2024-02-21T11:42:24;7.07;;;1.60;;
24151;SDS011;12311;50.866;4.332;2024-02-21T11:44:54;6.93;;;2.15;;
24151;SDS011;12311;50.866;4.332;2024-02-21T11:47:24;6.82;;;2.20;;
24151;SDS011;12311;50.866;4.332;2024-02-21T11:49:50;6.72;;;2.38;;
24151;SDS011;12311;50.866;4.332;2024-02-21T11:52:19;5.72;;;2.45;;
24151;SDS011;12311;50.866;4.332;2024-02-21T11:54:49;5.93;;;2.70;;
24151;SDS011;12311;50.866;4.332;2024-02-21T11:57:16;5.82;;;2.20;;
24151;SDS011;12311;50.866;4.332;2024-02-21T11:59:44;6.05;;;2.72;;
24151;SDS011;12311;50.866;4.332;2024-02-21T12:02:10;7.82;;;2.45;;
24151;SDS011;12311;50.866;4.332;2024-02-21T12:04:36;5.85;;;2.30;;
24151;SDS011;12311;50.866;4.332;2024-02-21T12:07:02;9.32;;;2.15;;
24151;SDS011;12311;50.866;4.332;2024-02-21T12:09:31;7.78;;;2.40;;
24151;SDS011;12311;50.866;4.332;2024-02-21T12:14:26;5.93;;;2.55;;
24151;SDS011;12311;50.866;4.332;2024-02-21T12:16:53;7.65;;;2.88;;
24151;SDS011;12311;50.866;4.332;2024-02-21T12:19:19;9.05;;;2.15;;
24151;SDS011;12311;50.866;4.332;2024-02-21T12:21:45;5.00;;;2.90;;
24151;SDS011;12311;50.866;4.332;2024-02-21T12:24:21;5.57;;;2.63;;
24151;SDS011;12311;50.866;4.332;2024-02-21T12:26:48;5.50;;;2.78;;
24151;SDS011;12311;50.866;4.332;2024-02-21T12:29:15;5.80;;;2.38;;
24151;SDS011;12311;50.866;4.332;2024-02-21T12:31:40;6.30;;;3.08;;
24151;SDS011;12311;50.866;4.332;2024-02-21T12:34:06;5.28;;;2.47;;
24151;SDS011;12311;50.866;4.332;2024-02-21T12:36:35;9.18;;;2.95;;
24151;SDS011;12311;50.866;4.332;2024-02-21T12:39:05;4.38;;;2.45;;
24151;SDS011;12311;50.866;4.332;2024-02-21T12:41:31;6.63;;;3.05;;
24151;SDS011;12311;50.866;4.332;2024-02-21T12:43:58;4.40;;;2.50;;
24151;SDS011;12311;50.866;4.332;2024-02-21T12:46:24;4.57;;;2.50;;
24151;SDS011;12311;50.866;4.332;2024-02-21T12:48:50;6.18;;;2.38;;
24151;SDS011;12311;50.866;4.332;2024-02-21T12:51:15;6.03;;;2.63;;
24151;SDS011;12311;50.866;4.332;2024-02-21T12:53:45;4.40;;;2.05;;
24151;SDS011;12311;50.866;4.332;2024-02-21T12:56:14;8.60;;;2.70;;
24151;SDS011;12311;50.866;4.332;2024-02-21T12:58:40;5.65;;;2.63;;
24151;SDS011;12311;50.866;4.332;2024-02-21T13:01:06;7.40;;;2.70;;
24151;SDS011;12311;50.866;4.332;2024-02-21T13:03:32;6.50;;;2.88;;
24151;SDS011;12311;50.866;4.332;2024-02-21T13:05:57;11.25;;;3.13;;
24151;SDS011;12311;50.866;4.332;2024-02-21T13:08:24;7.05;;;3.10;;
24151;SDS011;12311;50.866;4.332;2024-02-21T13:10:50;7.57;;;2.92;;
24151;SDS011;12311;50.866;4.332;2024-02-21T13:13:16;6.70;;;2.53;;
24151;SDS011;12311;50.866;4.332;2024-02-21T13:15:41;6.40;;;2.72;;
24151;SDS011;12311;50.866;4.332;2024-02-21T13:18:08;4.15;;;2.38;;
24151;SDS011;12311;50.866;4.332;2024-02-21T13:20:33;6.32;;;2.30;;
24151;SDS011;12311;50.866;4.332;2024-02-21T13:22:59;5.65;;;2.55;;
24151;SDS011;12311;50.866;4.332;2024-02-21T13:25:25;6.15;;;2.92;;
24151;SDS011;12311;50.866;4.332;2024-02-21T13:27:50;6.82;;;2.17;;
24151;SDS011;12311;50.866;4.332;2024-02-21T13:30:16;6.40;;;2.40;;
24151;SDS011;12311;50.866;4.332;2024-02-21T13:32:42;6.97;;;2.35;;
24151;SDS011;12311;50.866;4.332;2024-02-21T13:35:11;5.85;;;2.53;;
24151;SDS011;12311;50.866;4.332;2024-02-21T13:37:37;4.32;;;2.80;;
24151;SDS011;12311;50.866;4.332;2024-02-21T13:40:04;7.18;;;2.40;;
24151;SDS011;12311;50.866;4.332;2024-02-21T13:42:38;6.43;;;2.63;;
24151;SDS011;12311;50.866;4.332;2024-02-21T13:45:04;8.18;;;2.13;;
24151;SDS011;12311;50.866;4.332;2024-02-21T13:47:31;7.15;;;2.67;;
24151;SDS011;12311;50.866;4.332;2024-02-21T13:49:58;9.02;;;2.83;;
24151;SDS011;12311;50.866;4.332;2024-02-21T13:52:23;9.25;;;2.70;;
24151;SDS011;12311;50.866;4.332;2024-02-21T13:54:51;7.75;;;3.28;;
24151;SDS011;12311;50.866;4.332;2024-02-21T13:57:17;6.38;;;3.83;;
24151;SDS011;12311;50.866;4.332;2024-02-21T13:59:43;8.13;;;3.08;;
24151;SDS011;12311;50.866;4.332;2024-02-21T14:02:09;13.50;;;2.95;;
24151;SDS011;12311;50.866;4.332;2024-02-21T14:04:35;8.48;;;2.70;;
24151;SDS011;12311;50.866;4.332;2024-02-21T14:07:00;5.95;;;2.58;;
24151;SDS011;12311;50.866;4.332;2024-02-21T14:09:27;9.23;;;3.00;;
24151;SDS011;12311;50.866;4.332;2024-02-21T14:11:54;5.03;;;2.70;;
24151;SDS011;12311;50.866;4.332;2024-02-21T14:14:20;4.55;;;2.70;;
24151;SDS011;12311;50.866;4.332;2024-02-21T14:16:46;7.55;;;2.83;;
24151;SDS011;12311;50.866;4.332;2024-02-21T14:19:13;10.25;;;2.67;;
24151;SDS011;12311;50.866;4.332;2024-02-21T14:21:39;4.60;;;2.40;;
24151;SDS011;12311;50.866;4.332;2024-02-21T14:24:05;6.82;;;2.70;;
24151;SDS011;12311;50.866;4.332;2024-02-21T14:26:32;9.98;;;2.63;;
24151;SDS011;12311;50.866;4.332;2024-02-21T14:28:58;3.35;;;2.10;;
24151;SDS011;12311;50.866;4.332;2024-02-21T14:31:24;8.93;;;3.00;;
24151;SDS011;12311;50.866;4.332;2024-02-21T14:33:50;4.82;;;2.25;;
24151;SDS011;12311;50.866;4.332;2024-02-21T14:36:16;5.75;;;2.63;;
24151;SDS011;12311;50.866;4.332;2024-02-21T14:38:42;2.47;;;1.80;;
24151;SDS011;12311;50.866;4.332;2024-02-21T14:41:08;5.78;;;2.38;;
24151;SDS011;12311;50.866;4.332;2024-02-21T14:43:37;5.03;;;2.28;;